Time;durP1;ratioP1;P1;durP2;ratioP2;P2;SDS_P1;SDS_P2;PMS_P1;PMS_P2;Temp;Humidity;BMP_temperature;BMP_pressure;BME280_temperature;BME280_humidity;BME280_pressure;Samples;Min_cycle;Max_cycle;Signal;HPM_P1;HPM_P2
2022/02/04 00:02:35;;;;;;;7.40;5.85;;;5.90;99.90;;;;;;7308390;19;2004318;-79
2022/02/04 00:20:34;;;;;;;5.10;4.60;;;5.90;99.90;;;;;;7385363;19;20874;-79
2022/02/04 00:28:06;;;;;;;5.22;4.32;;;6.00;99.90;;;;;;7412407;19;20349;-80
2022/02/04 00:30:38;;;;;;;5.40;4.18;;;5.80;99.90;;;;;;7412585;19;20341;-79
2022/02/04 00:33:05;;;;;;;5.68;4.53;;;5.90;99.90;;;;;;7416686;19;20388;-80
2022/02/04 00:35:59;;;;;;;4.72;4.03;;;5.70;99.90;;;;;;7415680;19;20365;-80
2022/02/04 00:38:34;;;;;;;4.82;4.28;;;5.80;99.90;;;;;;7320482;19;2004234;-81
2022/02/04 00:41:06;;;;;;;5.55;4.93;;;5.80;99.90;;;;;;7425756;19;20413;-80
2022/02/04 00:43:32;;;;;;;4.85;4.38;;;6.00;99.90;;;;;;7423108;19;20401;-80
2022/02/04 00:46:08;;;;;;;4.05;3.65;;;5.90;99.90;;;;;;7424492;19;20305;-80
2022/02/04 00:53:55;;;;;;;4.32;3.58;;;5.90;99.90;;;;;;7419384;19;20356;-80
2022/02/04 00:56:35;;;;;;;4.80;4.40;;;5.90;99.90;;;;;;7419831;19;20353;-79
2022/02/04 01:26:33;;;;;;;5.13;4.38;;;6.00;99.90;;;;;;7310714;19;2004568;-80
2022/02/04 01:28:59;;;;;;;5.23;4.70;;;6.00;99.90;;;;;;7416390;19;20740;-79
2022/02/04 01:31:25;;;;;;;5.18;4.68;;;6.00;99.90;;;;;;7418073;19;20332;-80
2022/02/04 01:33:52;;;;;;;6.70;5.28;;;6.00;99.90;;;;;;7417107;19;20847;-81
2022/02/04 01:36:17;;;;;;;5.15;4.60;;;6.00;99.90;;;;;;7417433;19;20317;-79
2022/02/04 01:38:43;;;;;;;4.73;3.80;;;6.00;99.90;;;;;;7416103;19;20336;-79
2022/02/04 01:41:09;;;;;;;5.07;4.55;;;6.10;99.90;;;;;;7415984;19;21045;-80
2022/02/04 01:43:36;;;;;;;6.05;4.72;;;5.90;99.90;;;;;;7416526;19;20329;-79
2022/02/04 01:46:03;;;;;;;5.15;4.65;;;6.00;99.90;;;;;;7415240;19;20344;-80
2022/02/04 01:48:31;;;;;;;6.07;5.47;;;5.90;99.90;;;;;;7416544;19;20324;-79
2022/02/04 01:50:56;;;;;;;5.90;5.00;;;5.90;99.90;;;;;;7417311;19;20351;-79
2022/02/04 01:53:28;;;;;;;5.47;4.70;;;6.00;99.90;;;;;;7417331;19;20341;-80
2022/02/04 01:55:57;;;;;;;5.72;5.10;;;5.90;99.90;;;;;;7417392;19;20373;-79
2022/02/04 01:58:23;;;;;;;6.00;5.32;;;5.80;99.90;;;;;;7419111;19;20324;-79
2022/02/04 02:00:49;;;;;;;5.82;5.22;;;5.80;99.90;;;;;;7417967;19;20353;-79
2022/02/04 02:03:15;;;;;;;7.43;5.57;;;5.80;99.90;;;;;;7417581;19;20365;-79
2022/02/04 02:05:40;;;;;;;6.28;5.68;;;5.80;99.90;;;;;;7417280;19;20752;-80
2022/02/04 02:08:08;;;;;;;6.13;5.47;;;5.80;99.90;;;;;;7416894;19;20321;-80
2022/02/04 02:10:33;;;;;;;6.65;5.43;;;5.70;99.90;;;;;;7416018;19;20305;-79
2022/02/04 02:13:13;;;;;;;6.17;5.50;;;5.70;99.90;;;;;;7418274;19;20363;-81
2022/02/04 02:15:50;;;;;;;5.55;5.05;;;5.80;99.90;;;;;;7411858;19;20393;-80
2022/02/04 02:35:15;;;;;;;5.93;5.38;;;5.70;99.90;;;;;;7407152;19;20404;-80
2022/02/04 02:58:45;;;;;;;4.82;4.43;;;5.70;99.90;;;;;;7416470;19;20340;-80
2022/02/04 03:01:11;;;;;;;5.67;5.17;;;5.60;99.90;;;;;;7415054;19;20352;-80
2022/02/04 03:03:36;;;;;;;6.30;5.68;;;5.60;99.90;;;;;;7409615;19;20420;-79
2022/02/04 03:06:02;;;;;;;5.53;4.78;;;5.60;99.90;;;;;;7412461;19;20335;-79
2022/02/04 03:08:28;;;;;;;5.27;4.77;;;5.60;99.90;;;;;;7409847;19;20373;-79
2022/02/04 03:10:55;;;;;;;5.68;4.90;;;5.60;99.90;;;;;;7412082;19;20349;-80
2022/02/04 03:13:25;;;;;;;5.70;5.10;;;5.70;99.90;;;;;;7412973;19;20609;-79
2022/02/04 03:15:58;;;;;;;5.00;4.57;;;5.60;99.90;;;;;;7412145;19;20445;-79
2022/02/04 03:18:26;;;;;;;5.70;4.88;;;5.60;99.90;;;;;;7414510;19;20389;-80
2022/02/04 03:20:55;;;;;;;5.25;4.72;;;5.60;99.90;;;;;;7414373;19;20297;-80
2022/02/04 03:23:22;;;;;;;4.75;4.35;;;5.60;99.90;;;;;;7408053;19;20324;-79
2022/02/04 03:25:53;;;;;;;6.03;4.80;;;5.60;99.90;;;;;;7399453;19;20368;-79
2022/02/04 03:28:28;;;;;;;5.57;4.97;;;5.50;99.90;;;;;;7406062;19;20309;-80
2022/02/04 03:30:56;;;;;;;5.75;4.82;;;5.50;99.90;;;;;;7406523;19;20324;-80
2022/02/04 03:33:25;;;;;;;5.17;4.67;;;5.60;99.90;;;;;;7408107;19;20315;-79
2022/02/04 03:35:50;;;;;;;6.22;5.00;;;5.50;99.90;;;;;;7406638;19;20342;-79
2022/02/04 03:38:16;;;;;;;6.18;5.38;;;5.60;99.90;;;;;;7405020;19;20324;-79
2022/02/04 03:40:42;;;;;;;6.50;5.80;;;5.60;99.90;;;;;;7403383;19;20289;-80
2022/02/04 03:43:07;;;;;;;5.57;5.07;;;5.60;99.90;;;;;;7411862;19;20317;-79
2022/02/04 03:45:33;;;;;;;6.22;5.63;;;5.60;99.90;;;;;;7406055;19;20333;-80
2022/02/04 03:48:00;;;;;;;6.80;5.60;;;5.60;99.90;;;;;;7405675;19;20393;-79
2022/02/04 03:50:26;;;;;;;6.38;5.70;;;5.70;99.90;;;;;;7393816;19;20373;-78
2022/02/04 03:52:55;;;;;;;7.27;5.83;;;5.60;99.90;;;;;;7388662;19;22122;-79
2022/02/04 03:55:21;;;;;;;6.40;5.70;;;5.60;99.90;;;;;;7389987;19;20332;-80
2022/02/04 03:57:47;;;;;;;6.97;6.10;;;5.60;99.90;;;;;;7394280;19;20341;-79
2022/02/04 04:00:14;;;;;;;6.50;5.90;;;5.60;99.90;;;;;;7385050;19;20340;-79
2022/02/04 04:02:44;;;;;;;7.73;6.83;;;5.60;99.90;;;;;;7391120;19;20344;-79
2022/02/04 04:05:10;;;;;;;6.40;5.80;;;5.70;99.90;;;;;;7394560;19;20316;-80
2022/02/04 04:07:42;;;;;;;8.25;6.10;;;5.60;99.90;;;;;;7406529;19;20325;-79
2022/02/04 04:10:12;;;;;;;6.65;6.05;;;5.60;99.90;;;;;;7402114;19;20373;-79
2022/02/04 04:12:37;;;;;;;7.70;6.45;;;5.60;99.90;;;;;;7413771;19;20341;-80
2022/02/04 04:15:07;;;;;;;6.70;6.03;;;5.50;99.90;;;;;;7407571;19;20341;-79
2022/02/04 04:17:39;;;;;;;6.25;5.70;;;5.50;99.90;;;;;;7393854;19;20304;-79
2022/02/04 04:20:09;;;;;;;7.33;6.53;;;5.50;99.90;;;;;;7415101;19;20313;-80
2022/02/04 04:22:34;;;;;;;9.30;6.32;;;5.50;99.90;;;;;;7401167;19;20356;-79
2022/02/04 04:25:00;;;;;;;6.70;6.10;;;5.60;99.90;;;;;;7405928;19;20324;-79
2022/02/04 04:27:26;;;;;;;6.60;6.00;;;5.60;99.90;;;;;;7408693;19;20344;-79
2022/02/04 04:29:51;;;;;;;6.22;5.63;;;5.60;99.90;;;;;;7406907;19;20356;-79
2022/02/04 04:32:17;;;;;;;6.00;5.40;;;5.60;99.90;;;;;;7408365;19;20820;-79
2022/02/04 04:34:43;;;;;;;7.88;5.53;;;5.70;99.90;;;;;;7403892;19;20344;-79
2022/02/04 04:37:09;;;;;;;6.67;5.97;;;5.60;99.90;;;;;;7408084;19;20345;-79
2022/02/04 04:39:45;;;;;;;6.63;5.82;;;5.60;99.90;;;;;;7409553;19;20315;-79
2022/02/04 04:42:18;;;;;;;6.75;5.78;;;5.70;99.90;;;;;;7410047;19;20305;-79
2022/02/04 05:31:06;;;;;;;4.57;4.18;;;5.50;99.90;;;;;;7313314;19;2007683;-79
2022/02/04 05:33:31;;;;;;;4.40;4.00;;;5.50;99.90;;;;;;7418189;19;20365;-79
2022/02/04 05:35:58;;;;;;;5.20;4.53;;;5.70;99.90;;;;;;7418909;19;20338;-82
2022/02/04 05:38:26;;;;;;;5.03;4.40;;;5.60;99.90;;;;;;7422956;19;20312;-83
2022/02/04 05:41:13;;;;;;;5.28;4.78;;;5.50;99.90;;;;;;7420284;19;20357;-83
2022/02/04 05:43:56;;;;;;;5.45;4.70;;;5.50;99.90;;;;;;7216378;19;2004287;-82
2022/02/04 05:46:28;;;;;;;4.15;3.75;;;5.50;99.90;;;;;;7289413;19;2004481;-79
2022/02/04 05:48:56;;;;;;;5.37;4.87;;;5.50;99.90;;;;;;7413800;19;20332;-80
2022/02/04 05:51:32;;;;;;;6.13;4.70;;;5.50;99.90;;;;;;7421730;19;20357;-80
2022/02/04 05:59:23;;;;;;;5.38;4.88;;;5.50;99.90;;;;;;7417247;19;20343;-81
2022/02/04 06:02:19;;;;;;;5.85;5.25;;;5.50;99.90;;;;;;7389834;19;20352;-80
2022/02/04 06:07:38;;;;;;;8.68;7.88;;;5.40;99.90;;;;;;7405226;19;20289;-80
2022/02/04 06:10:17;;;;;;;7.60;6.80;;;5.50;99.90;;;;;;7316576;19;2004314;-81
2022/02/04 06:13:20;;;;;;;6.85;5.70;;;5.50;99.90;;;;;;7416113;19;20356;-81
2022/02/04 06:24:00;;;;;;;6.40;5.75;;;5.50;99.90;;;;;;7414582;19;20577;-80
2022/02/04 06:26:30;;;;;;;6.00;5.40;;;5.50;99.90;;;;;;7419301;19;20332;-80
2022/02/04 06:28:56;;;;;;;5.75;5.15;;;5.50;99.90;;;;;;7416817;19;20458;-80
2022/02/04 06:31:23;;;;;;;6.63;5.40;;;5.50;99.90;;;;;;7412149;19;20289;-80
2022/02/04 06:33:50;;;;;;;5.90;5.10;;;5.40;99.90;;;;;;7409965;19;20370;-80
2022/02/04 06:36:17;;;;;;;6.20;5.60;;;5.40;99.90;;;;;;7411202;19;20317;-81
2022/02/04 06:38:44;;;;;;;5.53;5.03;;;5.30;99.90;;;;;;7412883;19;20341;-80
2022/02/04 06:41:11;;;;;;;5.97;5.47;;;5.30;99.90;;;;;;7415372;19;20313;-80
2022/02/04 06:43:37;;;;;;;6.55;5.40;;;5.30;99.90;;;;;;7412987;19;20346;-81
2022/02/04 06:46:04;;;;;;;5.68;5.18;;;5.40;99.90;;;;;;7416793;19;20327;-80
2022/02/04 06:48:31;;;;;;;6.90;6.17;;;5.40;99.90;;;;;;7414703;19;20344;-81
2022/02/04 06:50:58;;;;;;;8.98;6.78;;;5.40;99.90;;;;;;7407191;19;20324;-80
2022/02/04 06:53:26;;;;;;;10.03;7.63;;;5.30;99.90;;;;;;7413055;19;20320;-79
2022/02/04 06:55:54;;;;;;;21.95;14.30;;;5.50;99.90;;;;;;7419619;19;20364;-79
2022/02/04 06:58:21;;;;;;;18.13;12.18;;;5.30;99.90;;;;;;7409309;19;20394;-79
2022/02/04 07:00:47;;;;;;;29.80;16.50;;;5.40;99.90;;;;;;7417527;19;20313;-79
2022/02/04 07:03:13;;;;;;;19.60;15.33;;;5.50;99.90;;;;;;7419217;19;20332;-79
2022/02/04 07:05:53;;;;;;;19.77;13.93;;;5.50;99.90;;;;;;7411888;19;20349;-79
2022/02/04 07:08:27;;;;;;;17.15;12.88;;;5.50;99.90;;;;;;7417508;19;20396;-79
2022/02/04 07:11:12;;;;;;;16.02;11.80;;;5.40;99.90;;;;;;7413278;19;20418;-80
2022/02/04 07:14:00;;;;;;;15.98;11.35;;;5.40;99.90;;;;;;7297218;19;2004201;-80
2022/02/04 07:21:40;;;;;;;9.52;8.23;;;5.40;99.90;;;;;;7412391;19;20324;-80
2022/02/04 07:24:07;;;;;;;16.43;10.50;;;5.50;99.90;;;;;;7411833;19;20335;-79
2022/02/04 07:26:34;;;;;;;15.07;11.32;;;5.40;99.90;;;;;;7418554;19;20321;-81
2022/02/04 07:29:01;;;;;;;10.95;9.10;;;5.40;99.90;;;;;;7415107;19;20345;-79
2022/02/04 07:31:30;;;;;;;10.52;8.25;;;5.40;99.90;;;;;;7416810;19;20360;-79
2022/02/04 07:34:17;;;;;;;7.60;6.75;;;5.40;99.90;;;;;;7420023;19;20344;-80
2022/02/04 07:42:16;;;;;;;6.60;5.78;;;5.60;99.90;;;;;;7311081;19;2003973;-78
2022/02/04 07:44:42;;;;;;;6.15;5.40;;;5.60;99.90;;;;;;7415559;19;20352;-79
2022/02/04 07:47:10;;;;;;;6.75;6.05;;;5.70;99.90;;;;;;7424647;19;20335;-79
2022/02/04 07:49:35;;;;;;;7.83;6.27;;;5.60;99.90;;;;;;7429010;19;20296;-78
2022/02/04 07:52:01;;;;;;;6.60;6.00;;;5.60;99.90;;;;;;7417402;19;20347;-79
2022/02/04 07:54:27;;;;;;;6.88;6.18;;;5.60;99.90;;;;;;7430249;19;20347;-79
2022/02/04 07:56:53;;;;;;;8.10;6.30;;;5.60;99.90;;;;;;7429586;19;20315;-78
2022/02/04 07:59:19;;;;;;;6.90;6.20;;;5.60;99.90;;;;;;7425833;19;20328;-79
2022/02/04 08:01:46;;;;;;;8.57;6.33;;;5.70;99.90;;;;;;7404223;19;20781;-78
2022/02/04 08:04:24;;;;;;;7.67;6.67;;;5.80;99.90;;;;;;7405716;19;20316;-79
2022/02/04 08:06:58;;;;;;;6.80;6.10;;;5.70;99.90;;;;;;7427902;19;20350;-78
2022/02/04 08:25:19;;;;;;;6.47;5.18;;;5.80;99.90;;;;;;7425839;19;20340;-79
2022/02/04 08:28:17;;;;;;;6.90;5.70;;;5.90;99.90;;;;;;7327361;19;2006657;-79
2022/02/04 08:36:20;;;;;;;5.68;5.15;;;5.90;99.90;;;;;;7411666;19;20348;-79
2022/02/04 08:48:00;;;;;;;5.22;4.65;;;5.80;99.90;;;;;;7316683;19;2004374;-78
2022/02/04 08:55:05;;;;;;;6.10;5.53;;;5.80;99.90;;;;;;7376730;19;20384;-79
2022/02/04 09:00:11;;;;;;;5.20;4.70;;;5.80;99.90;;;;;;7412451;19;20332;-79
2022/02/04 09:02:41;;;;;;;4.83;4.33;;;5.90;99.90;;;;;;7316294;19;2004310;-79
2022/02/04 09:05:12;;;;;;;4.20;3.80;;;5.80;99.90;;;;;;7410437;19;20344;-78
2022/02/04 09:10:21;;;;;;;5.03;4.53;;;5.80;99.90;;;;;;7417133;19;20344;-78
2022/02/04 09:22:54;;;;;;;4.38;3.95;;;6.10;99.90;;;;;;7412913;19;20328;-80
2022/02/04 09:25:20;;;;;;;4.77;4.27;;;6.20;99.90;;;;;;7408620;19;20353;-79
2022/02/04 09:27:46;;;;;;;4.53;4.13;;;6.30;99.90;;;;;;7408036;19;20333;-80
2022/02/04 09:30:15;;;;;;;4.80;4.30;;;6.20;99.90;;;;;;7415020;19;20313;-77
2022/02/04 09:32:41;;;;;;;4.30;3.90;;;6.20;99.90;;;;;;7408733;19;20313;-77
2022/02/04 09:35:11;;;;;;;4.38;3.97;;;6.20;99.90;;;;;;7401469;19;20304;-81
2022/02/04 09:37:37;;;;;;;4.13;3.72;;;6.30;99.90;;;;;;7404774;19;20308;-78
2022/02/04 09:40:04;;;;;;;4.20;3.80;;;6.40;99.90;;;;;;7389981;19;20309;-78
2022/02/04 09:42:30;;;;;;;4.75;4.03;;;6.40;99.90;;;;;;7393386;19;20338;-78
2022/02/04 09:44:56;;;;;;;3.45;3.15;;;6.70;99.90;;;;;;7388707;19;20349;-78
2022/02/04 09:47:25;;;;;;;4.28;3.88;;;6.50;99.90;;;;;;7391654;19;20349;-77
2022/02/04 09:49:57;;;;;;;3.70;3.40;;;6.60;99.90;;;;;;7390298;19;20312;-78
2022/02/04 10:17:08;;;;;;;3.28;2.97;;;6.90;99.90;;;;;;7297224;19;2004466;-78
2022/02/04 10:19:49;;;;;;;3.47;3.17;;;7.00;99.90;;;;;;7401558;19;20324;-79
2022/02/04 10:22:23;;;;;;;3.47;3.17;;;7.00;99.90;;;;;;7405855;19;20346;-79
2022/02/04 10:25:08;;;;;;;3.27;2.97;;;7.10;99.90;;;;;;7393348;19;20409;-79
2022/02/04 10:27:35;;;;;;;3.30;3.00;;;7.20;99.90;;;;;;7390323;19;20305;-78
2022/02/04 10:30:08;;;;;;;4.20;3.20;;;7.30;99.90;;;;;;7391706;19;20356;-79
2022/02/04 10:32:45;;;;;;;3.20;2.90;;;7.30;99.90;;;;;;7400000;19;20813;-79
2022/02/04 10:35:30;;;;;;;3.47;2.97;;;7.30;99.90;;;;;;7388543;19;20317;-78
2022/02/04 10:41:30;;;;;;;3.67;3.22;;;7.30;99.90;;;;;;7283729;19;2004307;-78
2022/02/04 10:44:20;;;;;;;3.17;2.95;;;7.40;99.90;;;;;;7287409;19;2004509;-79
2022/02/04 10:46:58;;;;;;;3.03;2.83;;;7.30;99.90;;;;;;7290882;19;2004482;-78
2022/02/04 10:49:43;;;;;;;3.63;3.13;;;7.30;99.90;;;;;;7394633;19;20321;-77
2022/02/04 10:55:30;;;;;;;2.72;2.53;;;7.30;99.90;;;;;;7397676;19;20368;-79
2022/02/04 11:33:11;;;;;;;4.55;4.10;;;7.40;99.90;;;;;;7286472;19;2006161;-78
2022/02/04 11:52:40;;;;;;;2.78;2.20;;;7.60;99.90;;;;;;7387741;19;20770;-78
2022/02/04 11:55:15;;;;;;;2.20;2.00;;;7.50;99.90;;;;;;7277743;19;2003926;-78
2022/02/04 11:57:56;;;;;;;2.60;2.40;;;7.50;99.90;;;;;;7379271;19;21208;-78
2022/02/04 12:00:30;;;;;;;2.05;1.88;;;7.50;99.90;;;;;;7386703;19;20313;-78
2022/02/04 12:02:56;;;;;;;2.40;2.20;;;7.50;99.90;;;;;;7359488;19;20304;-78
2022/02/04 12:05:21;;;;;;;2.05;1.85;;;7.60;99.90;;;;;;7384582;19;20313;-78
2022/02/04 12:07:47;;;;;;;1.90;1.80;;;7.50;99.90;;;;;;7371574;19;20332;-79
2022/02/04 12:10:13;;;;;;;1.70;1.60;;;7.50;99.90;;;;;;7380236;19;20300;-79
2022/02/04 12:12:58;;;;;;;3.67;2.95;;;7.50;99.90;;;;;;7388056;19;20309;-79
2022/02/04 12:15:54;;;;;;;3.83;2.60;;;7.50;99.90;;;;;;7279245;19;2004317;-78
2022/02/04 12:18:21;;;;;;;1.80;1.70;;;7.50;99.90;;;;;;7382503;19;20867;-77
2022/02/04 12:23:27;;;;;;;3.03;2.83;;;7.60;99.90;;;;;;7386248;19;20848;-78
2022/02/04 12:26:04;;;;;;;2.13;1.67;;;7.70;99.90;;;;;;7279278;19;2004632;-78
2022/02/04 12:28:48;;;;;;;1.88;1.77;;;7.70;99.90;;;;;;7278037;19;2004327;-79
2022/02/04 12:31:47;;;;;;;3.00;2.65;;;7.70;99.90;;;;;;7279552;19;2004565;-78
2022/02/04 12:34:19;;;;;;;2.45;2.25;;;7.70;99.90;;;;;;7287825;19;2005154;-78
2022/02/04 12:36:50;;;;;;;2.30;2.10;;;7.60;99.90;;;;;;7388633;19;20320;-78
2022/02/04 12:39:21;;;;;;;2.17;1.98;;;7.60;99.90;;;;;;7394516;19;20335;-78
2022/02/04 12:41:50;;;;;;;2.28;2.00;;;7.70;99.90;;;;;;7388842;19;20325;-78
2022/02/04 12:44:20;;;;;;;3.47;2.67;;;7.80;99.90;;;;;;7388924;19;20351;-78
2022/02/04 12:46:48;;;;;;;3.22;2.42;;;7.90;99.90;;;;;;7388524;19;20328;-78
2022/02/04 12:49:15;;;;;;;3.53;3.20;;;8.10;99.90;;;;;;7391183;19;20304;-78
2022/02/04 12:54:32;;;;;;;2.10;1.90;;;8.10;99.90;;;;;;7386635;19;20677;-79
2022/02/04 13:08:15;;;;;;;1.10;1.10;;;8.40;99.90;;;;;;7386556;19;20319;-78
2022/02/04 13:10:41;;;;;;;1.40;1.30;;;8.50;99.90;;;;;;7391729;19;21103;-78
2022/02/04 13:13:10;;;;;;;1.65;1.55;;;8.50;99.90;;;;;;7393984;19;20414;-78
2022/02/04 13:15:37;;;;;;;2.30;1.70;;;8.40;99.90;;;;;;7386209;19;20315;-77
2022/02/04 13:18:11;;;;;;;2.17;1.70;;;8.40;99.90;;;;;;7387305;19;20396;-78
2022/02/04 13:20:38;;;;;;;1.40;1.30;;;8.50;99.90;;;;;;7395371;19;20349;-78
2022/02/04 13:23:09;;;;;;;1.70;1.60;;;8.50;99.90;;;;;;7394756;19;20345;-78
2022/02/04 13:25:42;;;;;;;1.50;1.40;;;8.50;99.90;;;;;;7385345;19;20311;-77
2022/02/04 13:28:11;;;;;;;1.52;1.42;;;8.40;99.90;;;;;;7388169;19;20333;-78
2022/02/04 13:30:41;;;;;;;2.90;1.90;;;8.50;99.90;;;;;;7386895;19;20334;-78
2022/02/04 13:33:19;;;;;;;1.48;1.38;;;8.40;99.90;;;;;;7387166;19;20353;-78
2022/02/04 13:35:55;;;;;;;2.63;2.10;;;8.40;99.90;;;;;;7380851;19;20340;-78
2022/02/04 13:46:53;;;;;;;1.50;1.30;;;8.40;99.90;;;;;;7278493;19;2004380;-78
2022/02/04 13:51:56;;;;;;;3.25;1.23;;;8.50;99.90;;;;;;7370040;19;20365;-78
2022/02/04 13:54:32;;;;;;;2.20;1.80;;;8.50;99.90;;;;;;7386310;19;20361;-77
2022/02/04 13:57:28;;;;;;;1.35;1.30;;;8.30;99.90;;;;;;7390440;19;20391;-78
2022/02/04 14:02:54;;;;;;;1.63;1.53;;;8.20;99.90;;;;;;7372986;19;20352;-78
2022/02/04 14:05:31;;;;;;;1.10;1.10;;;8.20;99.90;;;;;;7383886;19;20308;-78
2022/02/04 14:08:04;;;;;;;2.35;1.20;;;8.20;99.90;;;;;;7394551;19;20345;-77
2022/02/04 14:10:34;;;;;;;1.40;1.30;;;8.20;99.90;;;;;;7384426;19;20305;-78
2022/02/04 14:13:10;;;;;;;1.33;1.23;;;8.20;99.90;;;;;;7387735;19;20887;-78
2022/02/04 14:15:38;;;;;;;1.52;1.30;;;8.20;99.90;;;;;;7267643;19;2004550;-78
2022/02/04 14:18:11;;;;;;;1.05;1.02;;;8.20;99.90;;;;;;7368199;19;20285;-79
2022/02/04 14:20:44;;;;;;;1.10;1.10;;;8.20;99.90;;;;;;7390700;19;20313;-80
2022/02/04 14:23:13;;;;;;;1.33;1.23;;;8.20;99.90;;;;;;7393094;19;20336;-79
2022/02/04 14:25:44;;;;;;;1.00;1.00;;;8.20;99.90;;;;;;7382354;19;20339;-78
2022/02/04 14:28:13;;;;;;;1.30;1.20;;;8.20;99.90;;;;;;7392362;19;20329;-78
2022/02/04 14:30:39;;;;;;;1.13;1.10;;;8.30;99.90;;;;;;7385053;19;20860;-78
2022/02/04 14:34:26;;;;;;;1.05;1.05;;;8.30;99.90;;;;;;7386202;19;20315;-78
2022/02/04 14:36:05;;;;;;;0.98;0.98;;;8.20;99.90;;;;;;7382055;19;20380;-78
2022/02/04 14:49:20;;;;;;;1.17;1.00;;;8.10;99.90;;;;;;7393603;19;20349;-79
2022/02/04 15:00:38;;;;;;;0.90;0.90;;;8.80;99.90;;;;;;7286722;19;2007033;-79
2022/02/04 15:05:42;;;;;;;0.93;0.93;;;8.70;99.90;;;;;;7381828;19;20352;-77
2022/02/04 15:08:12;;;;;;;2.05;1.10;;;8.80;99.90;;;;;;7385039;19;20313;-78
2022/02/04 15:10:39;;;;;;;1.52;1.10;;;8.70;99.90;;;;;;7384130;19;20320;-79
2022/02/04 15:13:12;;;;;;;0.90;0.90;;;8.70;99.90;;;;;;7380750;19;20304;-78
2022/02/04 15:15:38;;;;;;;1.00;0.90;;;8.70;99.90;;;;;;7384092;19;20328;-77
2022/02/04 15:18:03;;;;;;;1.23;0.95;;;8.60;99.90;;;;;;7384464;19;20306;-77
2022/02/04 15:20:29;;;;;;;1.08;1.00;;;8.70;99.90;;;;;;7383471;19;20656;-78
2022/02/04 15:22:55;;;;;;;0.93;0.87;;;8.70;99.90;;;;;;7384896;19;20305;-78
2022/02/04 15:25:23;;;;;;;1.33;1.23;;;8.60;99.90;;;;;;7384987;19;20321;-78
2022/02/04 15:28:02;;;;;;;1.30;1.20;;;8.60;99.90;;;;;;7384228;19;20364;-78
2022/02/04 15:30:33;;;;;;;1.10;1.10;;;8.50;99.90;;;;;;7382651;19;20316;-78
2022/02/04 15:32:59;;;;;;;1.02;0.93;;;8.50;99.90;;;;;;7386736;19;20367;-78
2022/02/04 15:35:25;;;;;;;0.77;0.77;;;8.60;99.90;;;;;;7385382;19;20329;-80
2022/02/04 15:37:51;;;;;;;0.80;0.80;;;8.60;99.90;;;;;;7371314;19;20339;-78
2022/02/04 15:40:17;;;;;;;0.70;0.70;;;8.50;99.90;;;;;;7383047;19;20293;-78
2022/02/04 15:42:44;;;;;;;2.15;0.90;;;8.40;99.90;;;;;;7387492;19;20351;-78
2022/02/04 15:47:58;;;;;;;0.75;0.75;;;8.40;99.90;;;;;;7384552;19;20328;-78
2022/02/04 15:50:40;;;;;;;1.00;1.00;;;8.30;99.90;;;;;;7382165;19;20401;-78
2022/02/04 15:53:23;;;;;;;1.40;0.93;;;8.40;99.90;;;;;;7387537;19;20311;-77
2022/02/04 15:58:24;;;;;;;0.80;0.80;;;8.40;99.90;;;;;;7380501;19;20300;-78
2022/02/04 16:01:51;;;;;;;0.80;0.80;;;8.60;99.90;;;;;;7381965;19;21183;-78
2022/02/04 16:06:05;;;;;;;0.80;0.80;;;8.40;99.90;;;;;;7381447;19;20424;-77
2022/02/04 16:08:31;;;;;;;0.70;0.70;;;8.30;99.90;;;;;;7383688;19;20345;-77
2022/02/04 16:13:46;;;;;;;0.80;0.80;;;8.30;99.90;;;;;;7387667;19;20318;-77
2022/02/04 16:29:48;;;;;;;1.00;1.00;;;8.00;99.90;;;;;;7389781;19;20423;-78
2022/02/04 16:32:16;;;;;;;0.70;0.70;;;8.00;99.90;;;;;;7391723;19;20354;-78
2022/02/04 16:34:43;;;;;;;0.83;0.83;;;7.80;99.90;;;;;;7391458;19;20376;-78
2022/02/04 16:37:18;;;;;;;0.65;0.65;;;7.80;99.90;;;;;;7385511;19;20350;-79
2022/02/04 16:39:47;;;;;;;4.07;0.93;;;7.80;99.90;;;;;;7379899;19;20333;-80
2022/02/04 16:42:19;;;;;;;0.90;0.85;;;7.70;99.90;;;;;;7359435;19;20340;-79
2022/02/04 16:44:45;;;;;;;0.80;0.80;;;7.70;99.90;;;;;;7384376;19;20428;-79
2022/02/04 16:47:11;;;;;;;1.20;0.80;;;7.60;99.90;;;;;;7345408;19;20329;-79
2022/02/04 16:49:37;;;;;;;1.33;0.80;;;7.50;99.90;;;;;;7384812;19;20397;-79
2022/02/04 16:52:05;;;;;;;0.70;0.70;;;7.50;99.90;;;;;;7385857;19;20341;-79
2022/02/04 16:54:33;;;;;;;0.85;0.85;;;7.50;99.90;;;;;;7385573;19;20343;-79
2022/02/04 16:56:59;;;;;;;0.77;0.77;;;7.60;99.90;;;;;;7388375;19;20356;-78
2022/02/04 16:59:29;;;;;;;0.70;0.70;;;7.40;99.90;;;;;;7384218;19;20312;-79
2022/02/04 17:01:59;;;;;;;0.70;0.70;;;7.40;99.90;;;;;;7386547;19;20341;-78
2022/02/04 17:04:25;;;;;;;0.80;0.80;;;7.30;99.90;;;;;;7385010;19;20333;-78
2022/02/04 17:06:58;;;;;;;0.80;0.80;;;7.40;99.90;;;;;;7391427;19;20891;-79
2022/02/04 17:09:30;;;;;;;0.80;0.80;;;7.40;99.90;;;;;;7387392;19;20391;-79
2022/02/04 17:12:07;;;;;;;1.55;1.45;;;7.30;99.90;;;;;;7287279;19;2004498;-79
2022/02/04 17:14:34;;;;;;;2.65;1.73;;;7.40;99.90;;;;;;7285661;19;2004493;-79
2022/02/04 17:17:02;;;;;;;0.90;0.90;;;7.30;99.90;;;;;;7387256;19;20312;-79
2022/02/04 17:19:34;;;;;;;0.90;0.90;;;7.40;99.90;;;;;;7383092;19;20324;-79
2022/02/04 17:22:03;;;;;;;1.42;1.33;;;7.30;99.90;;;;;;7377400;19;20904;-80
2022/02/04 17:24:30;;;;;;;2.28;2.08;;;7.00;99.90;;;;;;7385560;19;20321;-80
2022/02/04 17:26:58;;;;;;;2.25;2.05;;;7.30;99.90;;;;;;7386738;19;20309;-80
2022/02/04 17:29:27;;;;;;;1.98;1.88;;;7.30;99.90;;;;;;7381359;19;20329;-81
2022/02/04 17:31:54;;;;;;;3.90;3.60;;;7.30;99.90;;;;;;7369805;19;20304;-79
2022/02/04 17:34:26;;;;;;;3.25;2.95;;;7.20;99.90;;;;;;7384360;19;20382;-80
2022/02/04 17:36:52;;;;;;;1.70;1.60;;;7.30;99.90;;;;;;7384337;19;20860;-80
2022/02/04 17:39:22;;;;;;;1.40;1.30;;;7.30;99.90;;;;;;7369412;19;20351;-79
2022/02/04 17:41:49;;;;;;;1.70;1.60;;;7.30;99.90;;;;;;7385157;19;20360;-79
2022/02/04 17:44:16;;;;;;;3.13;2.63;;;7.30;99.90;;;;;;7384926;19;20304;-80
2022/02/04 17:46:43;;;;;;;3.58;2.88;;;7.30;99.90;;;;;;7386897;19;20317;-79
2022/02/04 17:49:25;;;;;;;1.90;1.80;;;7.30;99.90;;;;;;7387237;19;20312;-80
2022/02/04 17:51:58;;;;;;;2.15;1.95;;;7.30;99.90;;;;;;7266780;19;2006441;-79
2022/02/04 17:54:38;;;;;;;2.80;2.50;;;7.30;99.90;;;;;;7386744;19;20320;-80
2022/02/04 17:57:14;;;;;;;2.22;1.75;;;7.30;99.90;;;;;;7284787;19;2004388;-80
2022/02/04 18:02:39;;;;;;;1.30;1.27;;;7.30;99.90;;;;;;7385471;19;20329;-80
2022/02/04 18:07:38;;;;;;;1.02;1.02;;;7.30;99.90;;;;;;7392965;19;20352;-80
2022/02/04 18:10:05;;;;;;;1.88;1.77;;;7.30;99.90;;;;;;7390421;19;20324;-80
2022/02/04 18:12:35;;;;;;;1.30;1.20;;;7.30;99.90;;;;;;7367899;19;20395;-81
2022/02/04 18:15:04;;;;;;;1.00;1.00;;;7.30;99.90;;;;;;7387102;19;20406;-80
2022/02/04 18:17:31;;;;;;;1.25;1.23;;;7.20;99.90;;;;;;7385786;19;20313;-80
2022/02/04 18:19:58;;;;;;;1.10;1.10;;;7.20;99.90;;;;;;7377451;19;20328;-80
2022/02/04 18:22:24;;;;;;;1.30;1.20;;;7.30;99.90;;;;;;7387040;19;20321;-80
2022/02/04 18:24:52;;;;;;;1.00;1.00;;;7.30;99.90;;;;;;7385654;19;20387;-80
2022/02/04 18:27:19;;;;;;;1.00;1.00;;;7.30;99.90;;;;;;7385154;19;20348;-80
2022/02/04 18:29:52;;;;;;;1.23;1.20;;;7.30;99.90;;;;;;7385976;19;20313;-80
2022/02/04 18:32:19;;;;;;;1.55;1.45;;;7.30;99.90;;;;;;7388337;19;20334;-80
2022/02/04 18:34:45;;;;;;;1.77;1.53;;;7.40;99.90;;;;;;7385596;19;20329;-80
2022/02/04 18:37:11;;;;;;;1.70;1.60;;;7.30;99.90;;;;;;7384831;19;20360;-80
2022/02/04 18:42:43;;;;;;;1.70;1.60;;;7.20;99.90;;;;;;7286888;19;2004428;-79
2022/02/04 18:45:14;;;;;;;2.20;1.40;;;7.20;99.90;;;;;;7284797;19;2004429;-80
2022/02/04 18:50:38;;;;;;;1.30;1.20;;;7.20;99.90;;;;;;7386034;19;20650;-80
2022/02/04 18:58:20;;;;;;;2.00;1.30;;;7.20;99.90;;;;;;7390720;19;20309;-80
2022/02/04 19:00:51;;;;;;;1.33;1.33;;;7.20;99.90;;;;;;7365022;19;20316;-80
2022/02/04 19:03:24;;;;;;;1.15;1.05;;;7.20;99.90;;;;;;7388915;19;20336;-81
2022/02/04 19:08:38;;;;;;;1.05;1.00;;;7.20;99.90;;;;;;7284511;19;2004420;-80
2022/02/04 19:11:08;;;;;;;1.60;1.50;;;7.20;99.90;;;;;;7381202;19;20328;-80
2022/02/04 19:17:25;;;;;;;1.13;0.93;;;7.10;99.90;;;;;;7284459;19;2004483;-80
2022/02/04 19:22:20;;;;;;;1.15;1.10;;;7.00;99.90;;;;;;7387445;19;21009;-81
2022/02/04 19:24:51;;;;;;;1.13;1.02;;;7.10;99.90;;;;;;7277350;19;2004460;-80
2022/02/04 19:27:22;;;;;;;1.00;1.00;;;7.10;99.90;;;;;;7387124;19;20359;-80
2022/02/04 19:29:48;;;;;;;0.85;0.85;;;7.10;99.90;;;;;;7387304;19;20342;-80
2022/02/04 19:32:15;;;;;;;0.98;0.98;;;7.10;99.90;;;;;;7366965;19;20317;-80
2022/02/04 19:34:47;;;;;;;1.80;1.35;;;7.10;99.90;;;;;;7387826;19;20312;-80
2022/02/04 19:37:14;;;;;;;3.22;2.47;;;7.10;99.90;;;;;;7367866;19;20729;-79
2022/02/04 19:39:47;;;;;;;1.53;1.43;;;7.10;99.90;;;;;;7380956;19;20324;-80
2022/02/04 19:42:28;;;;;;;1.70;1.60;;;7.00;99.90;;;;;;7384365;19;20340;-80
2022/02/04 19:44:58;;;;;;;1.90;1.80;;;7.00;99.90;;;;;;7387480;19;20356;-80
2022/02/04 19:47:36;;;;;;;1.42;1.33;;;7.00;99.90;;;;;;7391711;19;20324;-80
2022/02/04 20:24:53;;;;;;;1.65;1.55;;;6.90;99.90;;;;;;7285125;19;2004361;-81
2022/02/04 20:27:19;;;;;;;0.98;0.98;;;6.80;99.90;;;;;;7392046;19;20320;-80